Terminal Aerodrome Forecast
Issued by NWS

Home | Current Version | Previous Version | Text Only | Print | Product List | Glossary On
Versions: 1 2 3 4 5 6 7 8 9 10 11 12 13 14 15 16 17 18 19 20 21 22 23
000
FTUS44 KLIX 281700
TAFHUM
TAF
KHUM 281730Z 2818/2918 08010KT P6SM SKC
     FM282000 12008KT P6SM SKC
     FM290600 VRB03KT P6SM FEW250
      TEMPO 2910/2913 4SM BR
     FM291600 15007KT P6SM SCT250=

USA.gov is the U.S. government's official web portal to all federal, state and local government web resources and services.